Time;durP1;ratioP1;P1;durP2;ratioP2;P2;SDS_P1;SDS_P2;PMS_P1;PMS_P2;Temp;Humidity;BMP_temperature;BMP_pressure;BME280_temperature;BME280_humidity;BME280_pressure;Samples;Min_cycle;Max_cycle;Signal;HPM_P1;HPM_P2
2023/12/28 00:00:42;;;;;;;1.17;0.10;;;10.30;99.90;;;;;;5039093;28;20025;-80
2023/12/28 00:03:08;;;;;;;1.08;0.20;;;10.30;99.90;;;;;;5055954;28;20021;-80
2023/12/28 00:05:33;;;;;;;1.98;0.30;;;10.30;99.90;;;;;;5056818;28;20025;-80
2023/12/28 00:07:59;;;;;;;1.30;0.10;;;10.30;99.90;;;;;;5057025;28;20052;-80
2023/12/28 00:10:26;;;;;;;3.47;0.28;;;10.30;99.90;;;;;;5039827;28;20036;-81
2023/12/28 00:12:52;;;;;;;3.33;0.38;;;10.30;99.90;;;;;;5057201;28;20384;-80
2023/12/28 00:15:17;;;;;;;0.55;0.15;;;10.30;99.90;;;;;;5056770;28;20017;-80
2023/12/28 00:17:43;;;;;;;2.95;0.28;;;10.30;99.90;;;;;;5039003;28;20544;-80
2023/12/28 00:20:09;;;;;;;1.73;0.15;;;10.20;99.90;;;;;;5057648;28;20036;-80
2023/12/28 00:22:37;;;;;;;1.85;0.30;;;10.20;99.90;;;;;;5039922;28;20384;-80
2023/12/28 00:25:03;;;;;;;2.63;0.20;;;10.20;99.90;;;;;;5055504;28;20112;-80
2023/12/28 00:27:29;;;;;;;1.33;0.10;;;10.20;99.90;;;;;;5057322;28;20021;-80
2023/12/28 00:29:54;;;;;;;3.50;0.35;;;10.20;99.90;;;;;;5057356;28;20027;-80
2023/12/28 00:32:20;;;;;;;1.02;0.03;;;10.20;99.90;;;;;;5054284;28;20017;-81
2023/12/28 00:34:45;;;;;;;1.35;0.32;;;10.30;99.90;;;;;;5038348;28;20060;-78
2023/12/28 00:37:11;;;;;;;3.67;0.30;;;10.30;99.90;;;;;;5036040;28;20017;-80
2023/12/28 00:39:38;;;;;;;1.40;0.30;;;10.70;99.90;;;;;;5054384;28;20033;-79
2023/12/28 00:42:04;;;;;;;3.72;0.10;;;10.20;99.90;;;;;;5035517;28;20108;-79
2023/12/28 00:44:30;;;;;;;1.48;0.20;;;10.20;99.90;;;;;;5037910;28;20170;-78
2023/12/28 00:46:55;;;;;;;3.72;0.95;;;10.20;99.90;;;;;;5039484;28;20112;-79
2023/12/28 00:49:21;;;;;;;4.18;0.32;;;10.10;99.90;;;;;;5057168;28;20021;-79
2023/12/28 00:51:47;;;;;;;3.47;0.55;;;10.20;99.90;;;;;;5039369;28;20108;-80
2023/12/28 00:54:12;;;;;;;0.95;0.17;;;10.10;99.90;;;;;;5057549;28;20435;-79
2023/12/28 00:56:38;;;;;;;1.45;0.05;;;10.10;99.90;;;;;;5055787;28;20494;-79
2023/12/28 00:59:03;;;;;;;2.70;1.00;;;10.00;99.90;;;;;;5056862;28;20033;-79
2023/12/28 01:01:32;;;;;;;2.25;0.35;;;10.00;99.90;;;;;;5056059;28;20059;-79
2023/12/28 01:03:57;;;;;;;3.08;0.30;;;9.90;99.90;;;;;;5039664;28;20027;-79
2023/12/28 01:06:27;;;;;;;3.85;0.77;;;10.00;99.90;;;;;;5057491;28;20021;-79
2023/12/28 01:08:54;;;;;;;2.58;0.20;;;10.00;99.90;;;;;;5057424;28;20021;-79
2023/12/28 01:11:20;;;;;;;2.35;0.25;;;10.00;99.90;;;;;;5039645;28;20083;-79
2023/12/28 01:13:46;;;;;;;3.05;0.40;;;;;;;;;;5057240;28;20029;-79
2023/12/28 01:16:15;;;;;;;1.13;0.10;;;9.90;99.90;;;;;;5039566;28;20033;-79
2023/12/28 01:18:40;;;;;;;8.45;1.30;;;10.00;99.90;;;;;;5057440;28;20056;-79
2023/12/28 01:21:09;;;;;;;1.13;0.10;;;9.90;99.90;;;;;;5056568;28;20185;-79
2023/12/28 01:23:35;;;;;;;0.95;0.17;;;9.90;99.90;;;;;;5057581;28;20067;-80
2023/12/28 01:26:00;;;;;;;2.65;0.25;;;10.00;99.90;;;;;;5058534;28;20491;-79
2023/12/28 01:28:28;;;;;;;4.05;0.50;;;9.90;99.90;;;;;;5060459;28;20025;-80
2023/12/28 01:30:53;;;;;;;4.50;0.70;;;9.90;99.90;;;;;;5059972;28;20029;-82
2023/12/28 01:33:19;;;;;;;4.05;0.22;;;11.20;99.90;;;;;;5040950;28;20028;-83
2023/12/28 01:35:45;;;;;;;1.15;0.35;;;9.90;99.90;;;;;;5041109;28;20021;-81
2023/12/28 01:38:10;;;;;;;4.07;0.28;;;9.90;99.90;;;;;;5058794;28;20033;-82
2023/12/28 01:40:36;;;;;;;1.42;0.13;;;9.80;99.90;;;;;;5058694;28;20025;-80
2023/12/28 01:43:01;;;;;;;1.35;0.10;;;9.90;99.90;;;;;;5058640;28;20041;-82
2023/12/28 01:45:27;;;;;;;1.30;0.30;;;9.90;99.90;;;;;;5040803;28;20055;-81
2023/12/28 01:47:56;;;;;;;3.50;0.30;;;9.90;99.90;;;;;;5040770;28;20024;-83
2023/12/28 01:50:23;;;;;;;1.38;0.13;;;9.90;99.90;;;;;;5041416;28;20035;-82
2023/12/28 01:52:50;;;;;;;1.55;0.30;;;9.90;99.90;;;;;;5040695;28;20020;-82
2023/12/28 01:55:18;;;;;;;3.50;0.20;;;9.90;99.90;;;;;;5040364;28;20014;-82
2023/12/28 01:57:45;;;;;;;4.68;0.95;;;9.80;99.90;;;;;;5040552;28;20392;-83
2023/12/28 02:00:11;;;;;;;8.85;0.90;;;9.80;99.90;;;;;;5039622;28;20028;-82
2023/12/28 02:02:37;;;;;;;2.55;0.10;;;;;;;;;;5040595;28;20473;-83
2023/12/28 02:05:04;;;;;;;2.42;0.20;;;9.80;99.90;;;;;;5039929;28;20017;-82
2023/12/28 02:07:29;;;;;;;2.42;0.25;;;9.80;99.90;;;;;;5040584;28;20393;-82
2023/12/28 02:09:55;;;;;;;3.20;0.28;;;9.80;99.90;;;;;;5041242;28;20096;-82
2023/12/28 02:12:21;;;;;;;3.03;0.38;;;9.70;99.90;;;;;;5039101;28;20091;-83
2023/12/28 02:14:46;;;;;;;2.97;0.30;;;9.80;99.90;;;;;;5039862;28;20071;-83
2023/12/28 02:17:47;;;;;;;1.67;0.10;;;9.80;99.90;;;;;;5058045;28;20147;-83
2023/12/28 02:20:14;;;;;;;5.45;0.20;;;9.80;99.90;;;;;;5039607;28;20024;-83
2023/12/28 02:22:40;;;;;;;1.92;0.20;;;9.80;99.90;;;;;;5039871;28;20028;-84
2023/12/28 02:25:13;;;;;;;4.75;0.47;;;9.90;99.90;;;;;;5041214;28;20040;-83
2023/12/28 02:27:46;;;;;;;2.80;0.20;;;9.90;99.90;;;;;;5040612;28;20021;-85
2023/12/28 02:30:17;;;;;;;7.38;0.38;;;9.90;99.90;;;;;;5040502;28;20163;-84
2023/12/28 02:32:57;;;;;;;1.33;0.00;;;12.40;99.90;;;;;;5057986;28;20021;-82
2023/12/28 02:35:32;;;;;;;6.45;0.20;;;10.10;99.90;;;;;;5057904;28;20021;-83
2023/12/28 02:38:07;;;;;;;2.05;0.10;;;10.10;99.90;;;;;;5040207;28;20021;-82
2023/12/28 02:40:38;;;;;;;1.67;0.13;;;10.10;99.90;;;;;;5040106;28;20051;-83
2023/12/28 02:43:08;;;;;;;1.38;0.32;;;10.10;99.90;;;;;;5039918;28;20036;-83
2023/12/28 02:45:37;;;;;;;2.92;0.32;;;10.20;99.90;;;;;;5040063;28;20033;-84
2023/12/28 02:48:04;;;;;;;1.55;0.10;;;10.20;99.90;;;;;;5039317;28;20487;-84
2023/12/28 02:50:30;;;;;;;4.10;0.10;;;10.20;99.90;;;;;;5057540;28;20052;-82
2023/12/28 02:52:56;;;;;;;1.90;0.52;;;10.10;99.90;;;;;;5039467;28;20045;-83
2023/12/28 02:55:23;;;;;;;6.47;1.45;;;;;;;;;;5039351;28;20120;-82
2023/12/28 02:57:55;;;;;;;6.50;0.53;;;10.10;99.90;;;;;;5057474;28;20033;-83
2023/12/28 03:00:21;;;;;;;0.82;0.15;;;10.10;99.90;;;;;;5039691;28;20370;-83
2023/12/28 03:02:47;;;;;;;0.43;0.00;;;10.00;99.90;;;;;;5039244;28;20020;-83
2023/12/28 03:05:13;;;;;;;4.10;0.00;;;10.00;99.90;;;;;;5060393;28;20017;-81
2023/12/28 03:07:40;;;;;;;2.08;0.03;;;10.00;99.90;;;;;;5041632;28;20070;-81
2023/12/28 03:10:06;;;;;;;1.52;0.32;;;10.00;99.90;;;;;;5045579;28;20022;-82
2023/12/28 03:12:32;;;;;;;5.45;0.98;;;10.10;99.90;;;;;;5049767;28;20485;-82
2023/12/28 03:14:58;;;;;;;1.55;0.17;;;10.10;99.90;;;;;;5031517;28;20018;-82
2023/12/28 03:17:23;;;;;;;1.08;0.50;;;10.10;99.90;;;;;;5049703;28;20052;-83
2023/12/28 03:19:49;;;;;;;3.03;0.73;;;10.10;99.90;;;;;;5032035;28;20029;-82
2023/12/28 03:22:15;;;;;;;2.38;0.60;;;10.10;99.90;;;;;;5031098;28;20469;-82
2023/12/28 03:24:41;;;;;;;4.65;0.20;;;10.10;99.90;;;;;;5034886;28;20376;-81
2023/12/28 03:27:07;;;;;;;3.92;0.20;;;10.10;99.90;;;;;;5050293;28;20021;-81
2023/12/28 03:29:33;;;;;;;4.40;0.10;;;10.10;99.90;;;;;;5050463;28;20021;-81
2023/12/28 03:31:59;;;;;;;1.83;0.00;;;10.10;99.90;;;;;;5049918;28;20024;-83
2023/12/28 03:34:29;;;;;;;2.38;0.20;;;10.20;99.90;;;;;;5070103;28;20033;-82
2023/12/28 03:36:56;;;;;;;3.70;0.38;;;10.10;99.90;;;;;;5068278;28;20017;-82
2023/12/28 03:39:23;;;;;;;3.05;0.10;;;;;;;;;;5050171;28;20025;-82
2023/12/28 03:41:49;;;;;;;1.98;0.52;;;10.10;99.90;;;;;;5066818;28;20025;-81
2023/12/28 03:44:14;;;;;;;2.72;0.00;;;10.10;99.90;;;;;;5067153;28;20036;-81
2023/12/28 03:46:40;;;;;;;3.95;0.15;;;10.10;99.90;;;;;;5049203;28;20025;-81
2023/12/28 03:49:06;;;;;;;7.72;0.30;;;10.10;99.90;;;;;;5049187;28;20495;-81
2023/12/28 03:51:31;;;;;;;4.18;0.30;;;10.10;99.90;;;;;;5047611;28;20017;-82
2023/12/28 03:53:58;;;;;;;2.80;0.13;;;;;;;;;;5048549;28;20052;-82
2023/12/28 03:56:27;;;;;;;1.73;0.10;;;10.00;99.90;;;;;;5048713;28;20083;-81
2023/12/28 03:58:54;;;;;;;5.50;0.25;;;10.00;99.90;;;;;;5053650;28;20039;-81
2023/12/28 04:01:21;;;;;;;4.60;0.25;;;10.00;99.90;;;;;;5047048;28;20028;-82
2023/12/28 04:03:47;;;;;;;4.45;0.25;;;9.90;99.90;;;;;;5045969;28;20055;-81
2023/12/28 04:06:14;;;;;;;2.92;0.10;;;9.90;99.90;;;;;;5045164;28;20021;-81
2023/12/28 04:08:40;;;;;;;6.03;0.17;;;9.90;99.90;;;;;;5046140;28;20029;-82
2023/12/28 04:11:06;;;;;;;11.60;1.00;;;10.00;99.90;;;;;;5044547;28;20014;-81
2023/12/28 04:13:31;;;;;;;0.93;0.40;;;9.90;99.90;;;;;;5045305;28;20438;-82
2023/12/28 04:15:57;;;;;;;3.72;0.03;;;9.90;99.90;;;;;;5046143;28;20078;-83
2023/12/28 04:18:23;;;;;;;9.43;0.00;;;9.90;99.90;;;;;;5046774;28;20026;-83
2023/12/28 04:20:49;;;;;;;3.17;0.17;;;9.90;99.90;;;;;;5051783;28;20068;-83
2023/12/28 04:23:15;;;;;;;5.00;0.20;;;9.90;99.90;;;;;;5051978;28;20072;-82
2023/12/28 04:25:41;;;;;;;2.85;0.70;;;10.00;99.90;;;;;;5050422;28;20025;-82
2023/12/28 04:28:09;;;;;;;5.93;0.80;;;10.00;99.90;;;;;;5051589;28;20088;-82
2023/12/28 04:30:35;;;;;;;2.40;0.25;;;10.10;99.90;;;;;;5054486;28;20029;-82
2023/12/28 04:33:04;;;;;;;4.75;0.10;;;10.10;99.90;;;;;;5053667;28;20051;-82
2023/12/28 04:35:30;;;;;;;1.73;0.20;;;10.20;99.90;;;;;;5053906;28;20036;-83
2023/12/28 04:37:56;;;;;;;5.05;0.45;;;;;;;;;;5052321;28;20025;-83
2023/12/28 04:40:22;;;;;;;4.10;0.20;;;10.20;99.90;;;;;;5053350;28;20029;-82
2023/12/28 04:42:47;;;;;;;1.80;0.03;;;10.20;99.90;;;;;;5053008;28;20031;-82
2023/12/28 04:45:13;;;;;;;6.25;0.30;;;10.20;99.90;;;;;;5052505;28;20052;-82
2023/12/28 04:47:39;;;;;;;2.63;0.20;;;10.30;99.90;;;;;;5053257;28;20017;-83
2023/12/28 04:50:06;;;;;;;3.47;0.38;;;10.30;99.90;;;;;;5051863;28;20021;-82
2023/12/28 04:52:32;;;;;;;3.60;0.10;;;;;;;;;;5053525;28;20032;-82
2023/12/28 04:54:58;;;;;;;7.20;0.68;;;10.30;99.90;;;;;;5070549;28;20048;-82
2023/12/28 04:57:28;;;;;;;8.82;0.95;;;10.30;99.90;;;;;;5071333;28;20462;-83
2023/12/28 04:59:54;;;;;;;4.35;0.10;;;10.30;99.90;;;;;;5053333;28;20396;-82
2023/12/28 05:02:20;;;;;;;3.83;0.17;;;10.30;99.90;;;;;;5052665;28;20029;-82
2023/12/28 05:04:46;;;;;;;7.05;0.32;;;10.40;99.90;;;;;;5051810;28;20054;-82
2023/12/28 05:07:11;;;;;;;4.32;0.40;;;10.40;99.90;;;;;;5052964;28;20492;-83
2023/12/28 05:09:37;;;;;;;8.10;0.57;;;;;;;;;;5071420;28;20008;-84
2023/12/28 05:12:04;;;;;;;6.07;1.00;;;10.50;99.90;;;;;;5053873;28;20025;-84
2023/12/28 05:14:29;;;;;;;7.13;0.85;;;10.50;99.90;;;;;;5071793;28;20040;-84
2023/12/28 05:16:55;;;;;;;4.20;0.63;;;10.50;99.90;;;;;;5071304;28;20029;-83
2023/12/28 05:19:21;;;;;;;3.47;0.00;;;10.50;99.90;;;;;;5069544;28;20025;-83
2023/12/28 05:21:46;;;;;;;2.70;0.00;;;10.50;99.90;;;;;;5070480;28;20134;-83
2023/12/28 05:24:13;;;;;;;7.60;0.98;;;10.50;99.90;;;;;;5069987;28;20049;-82
2023/12/28 05:26:39;;;;;;;5.25;0.20;;;10.50;99.90;;;;;;5069123;28;20040;-82
2023/12/28 05:29:04;;;;;;;7.53;0.17;;;10.50;99.90;;;;;;5050024;28;20088;-82
2023/12/28 05:31:33;;;;;;;6.82;0.20;;;10.60;99.90;;;;;;5067137;28;20029;-82
2023/12/28 05:33:59;;;;;;;2.05;0.00;;;10.60;99.90;;;;;;5067222;28;20025;-82
2023/12/28 05:36:25;;;;;;;9.30;0.40;;;10.60;99.90;;;;;;5068651;28;20035;-83
2023/12/28 05:38:51;;;;;;;3.50;0.05;;;10.60;99.90;;;;;;5070024;28;20029;-82
2023/12/28 05:41:16;;;;;;;8.88;0.63;;;10.60;99.90;;;;;;5052630;28;20088;-82
2023/12/28 05:43:42;;;;;;;7.65;0.20;;;10.60;99.90;;;;;;5069413;28;20034;-83
2023/12/28 05:46:08;;;;;;;11.30;0.60;;;10.60;99.90;;;;;;5051236;28;20013;-83
2023/12/28 05:48:33;;;;;;;10.25;0.95;;;10.60;99.90;;;;;;5051158;28;20025;-82
2023/12/28 05:50:59;;;;;;;8.63;0.63;;;10.60;99.90;;;;;;5068152;28;20139;-82
2023/12/28 05:53:26;;;;;;;5.78;0.15;;;10.70;99.90;;;;;;5068826;28;20028;-83
2023/12/28 05:55:52;;;;;;;6.05;0.40;;;10.70;99.90;;;;;;5051482;28;20369;-83
2023/12/28 05:58:17;;;;;;;6.63;0.20;;;10.70;99.90;;;;;;5051633;28;20051;-83
2023/12/28 06:00:43;;;;;;;7.78;0.10;;;10.60;99.90;;;;;;5049839;28;20024;-82
2023/12/28 06:03:09;;;;;;;8.48;0.32;;;10.70;99.90;;;;;;5049580;28;20052;-82
2023/12/28 06:05:34;;;;;;;13.98;1.00;;;10.70;99.90;;;;;;5050491;28;20017;-82
2023/12/28 06:08:00;;;;;;;3.22;0.20;;;11.40;99.90;;;;;;5050352;28;20065;-81
2023/12/28 06:10:26;;;;;;;5.57;0.20;;;;;;;;;;5049726;28;20021;-82
2023/12/28 06:12:52;;;;;;;7.53;0.25;;;10.70;99.90;;;;;;5049105;28;20082;-84
2023/12/28 06:15:17;;;;;;;8.38;0.50;;;10.70;99.90;;;;;;5049098;28;20021;-83
2023/12/28 06:17:43;;;;;;;10.32;0.38;;;10.70;99.90;;;;;;5050933;28;20017;-83
2023/12/28 06:20:09;;;;;;;8.30;1.38;;;10.70;99.90;;;;;;5050697;28;20076;-83
2023/12/28 06:22:38;;;;;;;8.02;0.52;;;10.70;99.90;;;;;;5050335;28;20078;-82
2023/12/28 06:25:04;;;;;;;7.32;0.43;;;10.70;99.90;;;;;;5050050;28;20448;-82
2023/12/28 06:27:30;;;;;;;10.10;0.90;;;10.70;99.90;;;;;;5049731;28;20029;-82
2023/12/28 06:29:56;;;;;;;9.68;1.35;;;10.70;99.90;;;;;;5067428;28;20029;-82
2023/12/28 06:32:22;;;;;;;5.95;0.20;;;10.70;99.90;;;;;;5050209;28;20480;-83
2023/12/28 06:34:48;;;;;;;7.38;0.13;;;10.70;99.90;;;;;;5068382;28;20040;-83
2023/12/28 06:37:14;;;;;;;8.00;0.25;;;10.80;99.90;;;;;;5067880;28;20096;-83
2023/12/28 06:39:39;;;;;;;10.77;0.30;;;10.70;99.90;;;;;;5051363;28;20045;-83
2023/12/28 06:42:06;;;;;;;8.38;0.43;;;;;;;;;;5049098;28;20019;-83
2023/12/28 06:44:32;;;;;;;7.82;0.55;;;10.70;99.90;;;;;;5048707;28;20059;-82
2023/12/28 06:46:58;;;;;;;12.13;0.85;;;10.70;99.90;;;;;;5064578;28;20476;-82
2023/12/28 06:49:24;;;;;;;9.20;0.30;;;;;;;;;;5066039;28;20021;-84
2023/12/28 06:51:51;;;;;;;12.57;0.80;;;10.80;99.90;;;;;;5050374;28;20400;-83
2023/12/28 06:54:17;;;;;;;8.13;0.57;;;10.80;99.90;;;;;;5049986;28;20028;-85
2023/12/28 06:56:43;;;;;;;7.22;0.63;;;10.80;99.90;;;;;;5049401;28;20484;-83
2023/12/28 06:59:12;;;;;;;8.68;0.77;;;10.80;99.90;;;;;;5047354;28;20020;-82
2023/12/28 07:01:41;;;;;;;9.35;0.47;;;10.70;99.90;;;;;;5067701;28;20033;-83
2023/12/28 07:04:07;;;;;;;5.95;0.30;;;10.70;99.90;;;;;;5049720;28;20104;-84
2023/12/28 07:06:32;;;;;;;10.05;0.30;;;10.70;99.90;;;;;;5049259;28;20032;-82
2023/12/28 07:08:58;;;;;;;15.50;1.30;;;10.70;99.90;;;;;;5049271;28;20028;-82
2023/12/28 07:11:23;;;;;;;13.02;0.73;;;10.70;99.90;;;;;;5047519;28;20031;-83
2023/12/28 07:13:49;;;;;;;10.10;0.40;;;10.70;99.90;;;;;;5048496;28;20369;-84
2023/12/28 07:16:15;;;;;;;7.15;0.25;;;10.70;99.90;;;;;;5048257;28;20048;-83
2023/12/28 07:18:41;;;;;;;6.97;0.38;;;10.70;99.90;;;;;;5047587;28;20074;-83
2023/12/28 07:21:09;;;;;;;8.60;0.22;;;10.60;99.90;;;;;;5048863;28;20488;-83
2023/12/28 07:23:35;;;;;;;12.30;1.00;;;;;;;;;;5049898;28;20498;-83
2023/12/28 07:26:01;;;;;;;9.40;0.50;;;10.60;99.90;;;;;;5048829;28;20024;-83
2023/12/28 07:28:27;;;;;;;6.15;0.40;;;10.50;99.90;;;;;;5049284;28;20564;-83
2023/12/28 07:30:53;;;;;;;6.25;0.90;;;10.50;99.90;;;;;;5049850;28;20028;-83
2023/12/28 07:33:19;;;;;;;20.00;3.20;;;10.50;99.90;;;;;;5049172;28;20024;-83
2023/12/28 07:35:44;;;;;;;10.43;0.80;;;10.50;99.90;;;;;;5066364;28;20116;-84
2023/12/28 07:38:10;;;;;;;3.75;0.55;;;10.40;99.90;;;;;;5066526;28;20504;-83
2023/12/28 07:40:36;;;;;;;11.00;0.88;;;10.40;99.90;;;;;;5065795;28;20047;-83
2023/12/28 07:43:01;;;;;;;6.40;0.57;;;11.70;99.90;;;;;;5048992;28;20028;-84
2023/12/28 07:45:27;;;;;;;9.15;0.52;;;10.40;99.90;;;;;;5048558;28;20037;-83
2023/12/28 07:47:52;;;;;;;8.65;0.68;;;10.50;99.90;;;;;;5048856;28;20021;-83
2023/12/28 07:50:20;;;;;;;8.30;0.50;;;10.40;99.90;;;;;;5049184;28;20044;-84
2023/12/28 07:52:46;;;;;;;10.70;0.65;;;;;;;;;;5049884;28;20108;-83
2023/12/28 07:55:12;;;;;;;8.38;0.20;;;10.40;99.90;;;;;;5052146;28;20120;-83
2023/12/28 07:57:38;;;;;;;6.07;0.10;;;10.50;99.90;;;;;;5051703;28;20025;-83
2023/12/28 08:00:05;;;;;;;8.00;1.02;;;10.40;99.90;;;;;;5070813;28;20411;-82
2023/12/28 08:02:31;;;;;;;11.43;0.70;;;10.50;99.90;;;;;;5055879;28;20036;-83
2023/12/28 08:04:57;;;;;;;11.63;0.60;;;10.50;99.90;;;;;;5054987;28;20025;-83
2023/12/28 08:07:22;;;;;;;6.05;0.95;;;10.50;99.90;;;;;;5072578;28;20024;-82
2023/12/28 08:09:48;;;;;;;14.68;0.40;;;;;;;;;;5056894;28;20021;-82
2023/12/28 08:12:14;;;;;;;16.85;1.88;;;10.60;99.90;;;;;;5056574;28;20033;-81
2023/12/28 08:14:40;;;;;;;7.00;0.57;;;;;;;;;;5071132;28;20036;-83
2023/12/28 08:17:06;;;;;;;10.50;0.70;;;10.60;99.90;;;;;;5051625;28;20033;-82
2023/12/28 08:19:32;;;;;;;6.15;0.30;;;10.60;99.90;;;;;;5050915;28;20060;-83
2023/12/28 08:21:57;;;;;;;8.98;0.50;;;10.50;99.90;;;;;;5050724;28;20036;-82
2023/12/28 08:24:23;;;;;;;12.07;0.68;;;10.60;99.90;;;;;;5051453;28;20017;-82
2023/12/28 08:26:49;;;;;;;10.60;0.10;;;;;;;;;;5068718;28;20021;-82
2023/12/28 08:29:15;;;;;;;8.30;0.47;;;10.60;99.90;;;;;;5052088;28;20400;-83
2023/12/28 08:31:40;;;;;;;14.85;0.95;;;10.60;99.90;;;;;;5071149;28;20056;-82
2023/12/28 08:34:06;;;;;;;13.10;1.05;;;10.60;99.90;;;;;;5071360;28;20170;-80
2023/12/28 08:36:32;;;;;;;6.90;0.20;;;10.60;99.90;;;;;;5074139;28;20029;-80
2023/12/28 08:38:57;;;;;;;7.63;0.63;;;10.60;99.90;;;;;;5056394;28;20031;-79
2023/12/28 08:41:24;;;;;;;10.50;0.30;;;10.70;99.90;;;;;;5071409;28;20001;-79
2023/12/28 08:43:50;;;;;;;16.63;1.02;;;10.70;99.90;;;;;;5073707;28;20036;-79
2023/12/28 08:46:16;;;;;;;16.42;2.25;;;10.70;99.90;;;;;;5074004;28;20021;-79
2023/12/28 08:48:42;;;;;;;11.88;1.05;;;10.60;99.90;;;;;;5069552;28;20494;-79
2023/12/28 08:51:10;;;;;;;11.77;0.93;;;10.70;99.90;;;;;;5055286;28;20096;-79
2023/12/28 08:53:36;;;;;;;8.18;0.25;;;;;;;;;;5055001;28;20025;-79
2023/12/28 08:56:02;;;;;;;8.02;0.35;;;10.70;99.90;;;;;;5055626;28;20020;-80
2023/12/28 08:58:27;;;;;;;9.93;0.75;;;10.70;99.90;;;;;;5053852;28;20027;-80
2023/12/28 09:00:53;;;;;;;11.40;0.88;;;10.70;99.90;;;;;;5073180;28;20045;-79
2023/12/28 09:03:19;;;;;;;8.05;0.35;;;10.70;99.90;;;;;;5054412;28;20021;-82
2023/12/28 09:05:44;;;;;;;10.55;0.50;;;10.70;99.90;;;;;;5052933;28;20031;-80
2023/12/28 09:08:10;;;;;;;8.73;0.20;;;10.70;99.90;;;;;;5055962;28;20447;-80
2023/12/28 09:10:36;;;;;;;4.35;0.82;;;10.80;99.90;;;;;;5074069;28;20408;-80
2023/12/28 09:13:05;;;;;;;13.95;1.75;;;10.70;99.90;;;;;;5071085;28;20085;-79
2023/12/28 09:15:31;;;;;;;15.32;0.85;;;10.70;99.90;;;;;;5054837;28;20020;-79
2023/12/28 09:17:56;;;;;;;16.45;0.70;;;10.70;99.90;;;;;;5055816;28;20036;-79
2023/12/28 09:20:22;;;;;;;13.30;1.30;;;10.70;99.90;;;;;;5054999;28;20025;-79
2023/12/28 09:22:53;;;;;;;12.07;1.05;;;10.70;99.90;;;;;;5070011;28;20045;-78
2023/12/28 09:25:18;;;;;;;11.55;0.60;;;10.70;99.90;;;;;;5038215;28;20047;-77
2023/12/28 09:27:44;;;;;;;14.73;0.50;;;10.70;99.90;;;;;;5038303;28;20121;-77
2023/12/28 09:30:10;;;;;;;5.63;0.40;;;10.70;99.90;;;;;;5055958;28;20053;-77
2023/12/28 09:32:35;;;;;;;10.60;1.58;;;10.70;99.90;;;;;;5042564;28;20039;-79
2023/12/28 09:35:04;;;;;;;16.20;0.85;;;10.90;99.90;;;;;;5061410;28;20017;-80
2023/12/28 09:37:30;;;;;;;12.52;0.52;;;13.40;99.90;;;;;;5041929;28;20036;-79
2023/12/28 09:39:55;;;;;;;10.52;0.55;;;10.90;99.90;;;;;;5043297;28;20021;-80
2023/12/28 09:42:27;;;;;;;9.93;0.40;;;10.90;99.90;;;;;;5067032;28;20396;-79
2023/12/28 09:44:54;;;;;;;17.13;0.75;;;;;;;;;;5034678;28;20041;-78
2023/12/28 09:47:20;;;;;;;5.82;0.40;;;11.00;99.90;;;;;;5032315;28;20507;-78
2023/12/28 09:49:46;;;;;;;11.00;0.30;;;12.00;99.90;;;;;;5033298;28;20024;-79
2023/12/28 09:52:12;;;;;;;11.63;0.80;;;11.10;99.90;;;;;;5051252;28;20021;-79
2023/12/28 09:54:43;;;;;;;7.50;0.70;;;11.00;99.90;;;;;;5034343;28;20018;-79
2023/12/28 09:57:11;;;;;;;12.05;1.27;;;11.00;99.90;;;;;;5035551;28;20139;-80
2023/12/28 09:59:39;;;;;;;10.98;0.93;;;11.00;99.90;;;;;;5053708;28;20092;-80
2023/12/28 10:02:06;;;;;;;6.37;0.20;;;11.10;99.90;;;;;;5054133;28;20115;-80
2023/12/28 10:04:31;;;;;;;6.18;0.52;;;11.00;99.90;;;;;;5071010;28;20020;-80
2023/12/28 10:06:57;;;;;;;3.88;0.47;;;11.10;99.90;;;;;;5052680;28;20049;-79
2023/12/28 10:09:26;;;;;;;8.52;0.73;;;10.90;99.90;;;;;;5052376;28;20013;-80
2023/12/28 10:11:52;;;;;;;10.13;0.55;;;10.80;99.90;;;;;;5072045;28;20025;-79
2023/12/28 10:14:20;;;;;;;8.30;1.15;;;10.80;99.90;;;;;;5047806;28;20024;-82
2023/12/28 10:16:49;;;;;;;14.10;0.63;;;10.90;99.90;;;;;;5045688;28;20041;-79
2023/12/28 10:19:17;;;;;;;14.77;1.20;;;10.80;99.90;;;;;;5045609;28;20021;-79
2023/12/28 10:21:43;;;;;;;11.00;0.47;;;10.80;99.90;;;;;;5062353;28;20464;-79
2023/12/28 10:24:10;;;;;;;10.95;0.10;;;10.80;99.90;;;;;;5063675;28;20043;-79
2023/12/28 10:26:36;;;;;;;11.18;0.32;;;10.90;99.90;;;;;;5060840;28;20431;-79
2023/12/28 10:29:03;;;;;;;15.55;0.57;;;10.90;99.90;;;;;;5043544;28;20052;-79
2023/12/28 10:31:29;;;;;;;8.40;0.30;;;10.90;99.90;;;;;;5046539;28;20032;-80
2023/12/28 10:33:59;;;;;;;5.88;0.03;;;11.00;99.90;;;;;;5063868;28;20047;-77
2023/12/28 10:36:26;;;;;;;12.18;1.33;;;11.00;99.90;;;;;;5055476;28;20029;-78
2023/12/28 10:38:54;;;;;;;9.93;0.70;;;11.00;99.90;;;;;;5042340;28;20021;-81
2023/12/28 10:41:21;;;;;;;6.13;0.00;;;11.10;99.90;;;;;;5048230;28;20048;-80
2023/12/28 10:44:04;;;;;;;7.13;1.00;;;11.10;99.90;;;;;;5045497;28;20031;-80
2023/12/28 10:46:39;;;;;;;9.52;0.77;;;11.20;99.90;;;;;;5045379;28;20454;-79
2023/12/28 10:49:16;;;;;;;11.75;1.40;;;11.30;99.90;;;;;;5045906;28;20013;-79
2023/12/28 10:51:43;;;;;;;10.10;0.45;;;;;;;;;;5045710;28;20049;-79
2023/12/28 10:54:12;;;;;;;6.25;0.45;;;11.20;99.90;;;;;;5064369;28;20033;-79
2023/12/28 10:56:57;;;;;;;9.55;1.33;;;11.20;99.90;;;;;;5063821;28;20040;-80
2023/12/28 10:59:41;;;;;;;10.05;0.93;;;11.30;99.90;;;;;;5045780;28;20028;-79
2023/12/28 11:02:09;;;;;;;7.95;0.90;;;11.30;99.90;;;;;;5056275;28;20365;-78
2023/12/28 11:04:42;;;;;;;10.05;0.80;;;11.30;99.90;;;;;;5057208;28;20481;-79
2023/12/28 11:07:09;;;;;;;12.18;0.70;;;11.30;99.90;;;;;;5056459;28;20048;-79
2023/12/28 11:09:37;;;;;;;7.43;0.52;;;11.30;99.90;;;;;;5055936;28;20021;-78
2023/12/28 11:12:07;;;;;;;16.67;1.15;;;11.30;99.90;;;;;;5038609;28;20448;-78
2023/12/28 11:14:34;;;;;;;11.93;1.85;;;11.30;99.90;;;;;;5038293;28;20488;-79
2023/12/28 11:17:02;;;;;;;6.80;0.43;;;11.20;99.90;;;;;;5040375;28;20078;-79
2023/12/28 11:19:33;;;;;;;14.27;0.38;;;11.20;99.90;;;;;;5040014;28;20519;-79
2023/12/28 11:22:03;;;;;;;8.50;0.47;;;11.30;99.90;;;;;;5042709;28;20025;-78
2023/12/28 11:24:30;;;;;;;19.05;1.85;;;11.30;99.90;;;;;;5057424;28;20025;-79
2023/12/28 11:26:56;;;;;;;8.13;0.70;;;11.30;99.90;;;;;;5036997;28;20182;-78
2023/12/28 11:29:23;;;;;;;7.93;0.10;;;11.30;99.90;;;;;;5036758;28;20017;-78
2023/12/28 11:31:57;;;;;;;12.73;1.40;;;11.40;99.90;;;;;;5039409;28;20027;-79
2023/12/28 11:34:28;;;;;;;9.00;0.25;;;11.30;99.90;;;;;;5040466;28;20040;-80
2023/12/28 11:36:56;;;;;;;13.45;0.30;;;11.30;99.90;;;;;;5036811;28;20049;-77
2023/12/28 11:39:44;;;;;;;13.82;0.75;;;11.40;99.90;;;;;;5038675;28;20059;-79
2023/12/28 11:42:10;;;;;;;13.02;0.95;;;11.30;99.90;;;;;;5060269;28;20033;-80
2023/12/28 11:44:41;;;;;;;7.95;1.02;;;11.30;99.90;;;;;;5060807;28;20060;-79
2023/12/28 11:47:21;;;;;;;16.42;1.30;;;11.30;99.90;;;;;;5057420;28;20021;-79
2023/12/28 11:49:48;;;;;;;14.10;0.85;;;11.20;99.90;;;;;;5045421;28;20024;-80
2023/12/28 11:52:28;;;;;;;14.32;0.52;;;11.20;99.90;;;;;;5042039;28;20044;-80
2023/12/28 11:54:55;;;;;;;13.15;0.93;;;11.20;99.90;;;;;;5036279;28;20107;-77
2023/12/28 11:57:20;;;;;;;7.75;0.20;;;11.20;99.90;;;;;;5017817;28;20037;-77
2023/12/28 11:59:52;;;;;;;9.02;0.38;;;11.20;99.90;;;;;;5019286;28;20029;-79
2023/12/28 12:02:19;;;;;;;12.23;0.40;;;11.10;99.90;;;;;;5036225;28;20022;-77
2023/12/28 12:04:45;;;;;;;13.93;0.98;;;11.20;99.90;;;;;;5017159;28;20033;-77
2023/12/28 12:07:10;;;;;;;8.63;0.80;;;11.30;99.90;;;;;;5016910;28;20022;-77
2023/12/28 12:09:36;;;;;;;16.08;0.43;;;11.20;99.90;;;;;;5042018;28;20032;-77
2023/12/28 12:12:02;;;;;;;10.60;0.95;;;11.20;99.90;;;;;;5035179;28;20017;-78
2023/12/28 12:14:29;;;;;;;12.50;0.50;;;11.40;99.90;;;;;;5035872;28;20488;-76
2023/12/28 12:16:58;;;;;;;9.38;0.73;;;11.40;99.90;;;;;;5035409;28;20029;-76
2023/12/28 12:19:25;;;;;;;;;;;11.50;99.90;;;;;;5053941;28;20017;-75
2023/12/28 12:21:54;;;;;;;8.40;0.90;;;11.60;99.90;;;;;;5053205;28;19916;-75
2023/12/28 12:24:21;;;;;;;7.03;0.75;;;11.60;99.90;;;;;;5035122;28;20025;-77
2023/12/28 12:26:47;;;;;;;10.23;0.73;;;12.80;99.90;;;;;;5032104;28;20026;-75
2023/12/28 12:29:16;;;;;;;9.57;0.75;;;11.60;99.90;;;;;;5015333;28;20393;-75
2023/12/28 12:31:44;;;;;;;13.40;1.60;;;11.60;99.90;;;;;;5015410;28;20025;-76
2023/12/28 12:34:16;;;;;;;10.55;0.85;;;11.60;99.90;;;;;;5016255;28;20022;-77
2023/12/28 12:36:42;;;;;;;8.63;1.08;;;11.60;99.90;;;;;;5016522;28;20022;-77
2023/12/28 12:39:11;;;;;;;8.50;0.95;;;11.50;99.90;;;;;;5040754;28;20310;-77
2023/12/28 12:41:37;;;;;;;14.20;1.55;;;11.60;99.90;;;;;;5059341;28;20025;-77
2023/12/28 12:44:04;;;;;;;14.57;0.43;;;11.60;99.90;;;;;;5058126;28;20036;-78
2023/12/28 12:46:30;;;;;;;10.25;1.45;;;11.60;99.90;;;;;;5039912;28;20025;-78
2023/12/28 12:48:57;;;;;;;16.58;1.42;;;11.60;99.90;;;;;;5039695;28;20021;-78